Time;durP1;ratioP1;P1;durP2;ratioP2;P2;SDS_P1;SDS_P2;PMS_P1;PMS_P2;Temp;Humidity;BMP_temperature;BMP_pressure;BME280_temperature;BME280_humidity;BME280_pressure;Samples;Min_cycle;Max_cycle;Signal;HPM_P1;HPM_P2
2020/12/18 00:01:54;;;;;;;3.80;2.40;;;;;;;18.62;55.44;101984.88;4805340;29;20121;-70
2020/12/18 00:04:19;;;;;;;5.13;2.35;;;;;;;18.65;55.54;101996.28;4792555;29;20074;-70
2020/12/18 00:06:44;;;;;;;3.35;2.38;;;;;;;18.65;55.45;101995.41;4807060;29;20125;-70
2020/12/18 00:09:10;;;;;;;5.57;2.35;;;;;;;18.65;55.44;101991.06;4822703;29;20122;-70
2020/12/18 00:11:36;;;;;;;3.42;2.40;;;;;;;18.65;55.34;101993.66;4793728;29;22238;-70
2020/12/18 00:14:01;;;;;;;5.07;2.28;;;;;;;18.64;55.44;101994.53;4807019;29;20038;-70
2020/12/18 00:16:26;;;;;;;4.05;2.55;;;;;;;18.64;55.24;102001.50;4802485;29;20034;-70
2020/12/18 00:18:53;;;;;;;4.10;2.55;;;;;;;18.63;55.30;101995.38;4819880;29;20052;-70
2020/12/18 00:21:22;;;;;;;5.00;2.38;;;;;;;18.62;55.36;101992.75;4804856;29;20111;-70
2020/12/18 00:23:48;;;;;;;5.80;3.25;;;;;;;18.62;55.16;101992.75;4821841;29;20022;-70
2020/12/18 00:26:15;;;;;;;4.68;2.20;;;;;;;18.58;55.23;101986.56;4822815;29;20042;-70
2020/12/18 00:28:41;;;;;;;3.50;2.25;;;;;;;18.59;55.33;101987.44;4807745;29;20041;-70
2020/12/18 00:31:06;;;;;;;3.15;1.85;;;;;;;18.59;55.12;101990.94;4820223;29;20034;-70
2020/12/18 00:33:32;;;;;;;3.70;1.90;;;;;;;18.59;54.91;101976.97;4806694;29;20039;-70
2020/12/18 00:35:57;;;;;;;2.90;2.05;;;;;;;18.57;55.14;101985.66;4821582;29;20026;-70
2020/12/18 00:38:22;;;;;;;4.88;2.00;;;;;;;18.59;54.96;101985.72;4778990;29;20031;-70
2020/12/18 00:40:48;;;;;;;2.78;1.90;;;;;;;18.57;54.63;101977.81;4823876;29;20030;-70
2020/12/18 00:43:13;;;;;;;4.45;2.63;;;;;;;18.56;55.04;101964.72;4803348;29;20042;-70
2020/12/18 00:45:38;;;;;;;3.47;2.33;;;;;;;18.54;55.21;101975.16;4805209;29;20042;-70
2020/12/18 00:48:04;;;;;;;3.42;2.28;;;;;;;18.55;54.95;101978.66;4805547;29;20057;-70
2020/12/18 00:50:29;;;;;;;3.85;1.98;;;;;;;18.51;55.12;101977.75;4821373;29;20406;-70
2020/12/18 00:52:55;;;;;;;3.05;1.67;;;;;;;18.51;55.13;101975.13;4821030;29;20113;-70
2020/12/18 00:55:21;;;;;;;3.38;2.00;;;;;;;18.55;55.10;101979.56;4805144;29;20434;-70
2020/12/18 00:57:46;;;;;;;3.55;2.13;;;;;;;18.55;55.14;101976.94;4806566;29;20096;-70
2020/12/18 01:00:13;;;;;;;4.57;1.88;;;;;;;18.51;54.98;101969.88;4793116;29;20061;-70
2020/12/18 01:02:38;;;;;;;4.95;2.33;;;;;;;18.50;55.06;101968.13;4820637;29;20027;-70
2020/12/18 01:05:04;;;;;;;2.58;1.63;;;;;;;18.47;55.02;101968.06;4804195;29;20168;-70
2020/12/18 01:07:29;;;;;;;2.92;1.65;;;;;;;18.52;54.82;101974.25;4805130;29;20070;-70
2020/12/18 01:09:54;;;;;;;4.30;1.85;;;;;;;18.50;55.02;101978.59;4790008;29;20035;-70
2020/12/18 01:12:20;;;;;;;3.20;1.65;;;;;;;18.47;55.11;101972.44;4820574;29;20049;-70
2020/12/18 01:14:45;;;;;;;3.08;1.90;;;;;;;18.50;54.65;101982.97;4820918;29;20041;-70
2020/12/18 01:17:13;;;;;;;3.42;2.10;;;;;;;18.52;54.91;101981.25;4820155;29;20034;-70
2020/12/18 01:19:38;;;;;;;3.60;1.92;;;;;;;18.48;54.89;101974.19;4818268;29;20042;-70
2020/12/18 01:22:04;;;;;;;3.28;2.20;;;;;;;18.50;54.91;101969.84;4807213;29;20042;-70
2020/12/18 01:24:30;;;;;;;1.90;1.52;;;;;;;18.50;54.90;101970.75;4806849;29;20389;-70
2020/12/18 01:26:55;;;;;;;3.42;1.90;;;;;;;18.49;54.91;101973.34;4817199;29;20038;-70
2020/12/18 01:29:21;;;;;;;3.47;1.70;;;;;;;18.48;54.95;101968.94;4822509;29;20046;-70
2020/12/18 01:31:46;;;;;;;2.65;1.95;;;;;;;18.45;54.92;101953.19;4823057;29;20107;-70
2020/12/18 01:34:12;;;;;;;2.85;1.75;;;;;;;18.47;54.66;101967.19;4809515;29;20049;-70
2020/12/18 01:36:37;;;;;;;3.38;2.03;;;;;;;18.47;54.74;101967.19;4808687;29;20398;-70
2020/12/18 01:39:04;;;;;;;3.22;1.95;;;;;;;18.47;54.97;101969.81;4810082;29;20113;-70
2020/12/18 01:41:29;;;;;;;4.95;1.67;;;;;;;18.47;54.63;101970.69;4808571;29;20044;-70
2020/12/18 01:43:54;;;;;;;1.65;1.20;;;;;;;18.43;54.79;101960.19;4804960;29;20034;-70
2020/12/18 01:46:22;;;;;;;2.47;1.65;;;;;;;18.43;54.97;101954.94;4823854;29;20042;-70
2020/12/18 01:48:47;;;;;;;3.22;1.73;;;;;;;18.42;54.74;101963.66;4823441;29;20027;-70
2020/12/18 01:51:19;;;;;;;2.65;1.50;;;;;;;18.44;54.64;101978.50;4822871;29;20134;-70
2020/12/18 01:53:46;;;;;;;2.55;1.65;;;;;;;18.42;54.69;101969.78;4799834;29;20039;-70
2020/12/18 01:56:12;;;;;;;2.70;1.70;;;;;;;18.43;54.78;101981.13;4801621;29;20472;-70
2020/12/18 01:58:40;;;;;;;3.47;1.90;;;;;;;18.40;55.08;101970.59;4801414;29;20038;-70
2020/12/18 02:01:07;;;;;;;5.15;1.83;;;;;;;18.44;54.83;101977.63;4809741;29;20030;-70
2020/12/18 02:03:33;;;;;;;2.25;1.63;;;;;;;18.39;54.78;101968.84;4805830;29;20433;-70
2020/12/18 02:06:03;;;;;;;2.58;1.70;;;;;;;18.42;54.58;101974.13;4805241;29;20491;-70
2020/12/18 02:08:29;;;;;;;2.45;1.70;;;;;;;18.41;54.38;101973.25;4808435;29;20045;-70
2020/12/18 02:10:58;;;;;;;2.22;1.52;;;;;;;18.42;54.66;101972.38;4807249;29;20039;-70
2020/12/18 02:13:25;;;;;;;2.67;1.52;;;;;;;18.41;54.63;101968.00;4805581;29;20042;-70
2020/12/18 02:15:51;;;;;;;2.45;1.63;;;;;;;18.42;54.49;101966.28;4804717;29;20041;-70
2020/12/18 02:18:21;;;;;;;1.80;1.27;;;;;;;18.41;54.66;101960.16;4807339;29;20164;-70
2020/12/18 02:20:47;;;;;;;1.92;1.40;;;;;;;18.39;54.52;101950.50;4803262;29;20022;-70
2020/12/18 02:23:13;;;;;;;2.33;1.33;;;;;;;18.41;54.43;101949.69;4802356;29;20514;-70
2020/12/18 02:25:40;;;;;;;2.70;1.77;;;;;;;18.43;54.35;101955.81;4799599;29;20030;-70
2020/12/18 02:28:10;;;;;;;2.20;2.00;;;;;;;18.41;54.51;101964.50;4803493;29;20043;-70
2020/12/18 02:30:36;;;;;;;3.35;2.00;;;;;;;18.40;54.53;101963.63;4804365;29;20070;-70
2020/12/18 02:33:10;;;;;;;2.20;1.48;;;;;;;18.40;54.55;101965.38;4799350;29;20106;-70
2020/12/18 02:35:35;;;;;;;2.22;1.30;;;;;;;18.38;54.54;101959.22;4805255;29;20034;-70
2020/12/18 02:38:02;;;;;;;2.45;1.45;;;;;;;18.37;54.54;101954.84;4808195;29;20030;-70
2020/12/18 02:40:28;;;;;;;2.10;1.52;;;;;;;18.39;54.33;101967.09;4793415;29;20035;-70
2020/12/18 02:42:53;;;;;;;2.38;1.38;;;;;;;18.39;54.29;101966.22;4813602;29;20027;-71
2020/12/18 02:45:19;;;;;;;2.13;1.55;;;;;;;18.38;54.50;101961.84;4801436;29;20483;-70
2020/12/18 02:47:45;;;;;;;2.03;1.30;;;;;;;18.36;54.55;101948.72;4804250;29;20030;-70
2020/12/18 02:50:10;;;;;;;2.97;1.33;;;;;;;18.31;54.34;101934.69;4815355;29;20057;-70
2020/12/18 02:52:37;;;;;;;2.08;1.42;;;;;;;18.35;54.36;101939.09;4780178;29;20034;-70
2020/12/18 02:55:03;;;;;;;1.85;1.23;;;;;;;18.34;54.35;101939.09;4806407;29;20034;-70
2020/12/18 02:57:28;;;;;;;2.78;2.00;;;;;;;18.35;54.28;101938.22;4789969;29;20049;-70
2020/12/18 02:59:53;;;;;;;2.67;1.40;;;;;;;18.35;54.45;101933.00;4807094;29;20042;-70
2020/12/18 03:02:19;;;;;;;1.83;1.42;;;;;;;18.35;54.22;101933.00;4803033;29;20043;-70
2020/12/18 03:04:44;;;;;;;2.85;1.77;;;;;;;18.32;54.09;101925.09;4809732;29;20449;-70
2020/12/18 03:07:09;;;;;;;2.88;1.50;;;;;;;18.33;54.25;101927.72;4805199;29;20047;-70
2020/12/18 03:09:35;;;;;;;3.05;1.60;;;;;;;18.34;54.31;101928.59;4806091;29;20041;-71
2020/12/18 03:12:01;;;;;;;2.95;1.67;;;;;;;18.34;54.25;101928.59;4799881;29;20047;-70
2020/12/18 03:14:26;;;;;;;2.40;1.30;;;;;;;18.31;54.29;101918.09;4801871;29;20035;-70
2020/12/18 03:16:52;;;;;;;1.77;1.20;;;;;;;18.32;54.40;101920.72;4804585;29;20045;-70
2020/12/18 03:19:17;;;;;;;2.83;2.10;;;;;;;18.34;54.06;101923.38;4805060;29;20031;-70
2020/12/18 03:21:42;;;;;;;2.42;1.73;;;;;;;18.33;54.16;101925.09;4804016;29;20030;-70
2020/12/18 03:24:08;;;;;;;2.17;1.42;;;;;;;18.33;54.26;101926.84;4807211;29;20046;-70
2020/12/18 03:26:33;;;;;;;3.75;1.70;;;;;;;18.33;54.07;101924.22;4803294;29;20030;-70
2020/12/18 03:28:58;;;;;;;2.33;1.50;;;;;;;18.32;54.02;101923.34;4806869;29;20042;-70
2020/12/18 03:31:24;;;;;;;2.38;1.38;;;;;;;18.32;54.26;101928.59;4809261;29;20034;-70
2020/12/18 03:33:49;;;;;;;2.13;1.50;;;;;;;18.27;54.00;101917.19;4802966;29;20067;-70
2020/12/18 03:36:14;;;;;;;2.63;1.13;;;;;;;18.30;54.08;101919.84;4786701;29;20118;-70
2020/12/18 03:38:40;;;;;;;2.40;1.80;;;;;;;18.27;54.13;101911.94;4804470;29;20034;-70
2020/12/18 03:41:06;;;;;;;1.75;1.27;;;;;;;18.28;54.02;101916.34;4804339;29;20069;-70
2020/12/18 03:43:32;;;;;;;3.45;1.98;;;;;;;18.25;54.08;101918.03;4805328;29;20046;-70
2020/12/18 03:45:58;;;;;;;2.40;1.50;;;;;;;18.28;54.12;101920.69;4803937;29;20035;-70
2020/12/18 03:48:23;;;;;;;2.63;1.58;;;;;;;18.26;53.96;101918.03;4807124;29;20041;-70
2020/12/18 03:50:49;;;;;;;2.40;1.63;;;;;;;18.29;54.14;101922.44;4788550;29;20116;-73
2020/12/18 03:53:14;;;;;;;2.17;1.52;;;;;;;18.27;54.23;101913.69;4804431;29;20517;-73
2020/12/18 03:55:39;;;;;;;3.00;1.13;;;;;;;18.28;54.01;101905.88;4806077;29;20114;-73
2020/12/18 03:58:05;;;;;;;1.80;1.30;;;;;;;18.25;54.38;101907.56;4798018;29;20399;-73
2020/12/18 04:00:30;;;;;;;2.63;1.60;;;;;;;18.23;53.97;101893.56;4812598;29;20035;-73
2020/12/18 04:02:55;;;;;;;2.03;1.33;;;;;;;18.24;53.91;101904.06;4785513;30;20364;-73
2020/12/18 04:05:23;;;;;;;2.35;1.60;;;;;;;18.26;53.89;101910.19;4816692;29;20042;-73
2020/12/18 04:07:48;;;;;;;3.08;1.50;;;;;;;18.26;53.87;101915.44;4794670;29;20474;-73
2020/12/18 04:10:13;;;;;;;2.33;1.60;;;;;;;18.25;54.06;101902.31;4800041;29;20064;-73
2020/12/18 04:12:39;;;;;;;2.05;1.17;;;;;;;18.26;54.15;101902.34;4805296;29;20042;-73
2020/12/18 04:15:04;;;;;;;9.65;1.60;;;;;;;18.26;54.22;101904.06;4803639;29;20038;-73
2020/12/18 04:17:29;;;;;;;2.42;1.50;;;;;;;18.25;54.05;101897.06;4806198;29;20054;-73
2020/12/18 04:19:55;;;;;;;2.67;1.50;;;;;;;18.23;54.03;101901.41;4820121;29;20126;-73
2020/12/18 04:22:20;;;;;;;2.22;1.42;;;;;;;18.23;54.06;101886.59;4790125;29;20030;-73
2020/12/18 04:24:46;;;;;;;3.72;1.60;;;;;;;18.22;54.04;101874.34;4801065;29;20201;-73
2020/12/18 04:27:11;;;;;;;1.80;1.27;;;;;;;18.21;54.13;101878.72;4802381;29;20070;-73
2020/12/18 04:29:36;;;;;;;2.63;1.50;;;;;;;18.22;54.03;101874.34;4802745;29;20527;-72
2020/12/18 04:32:02;;;;;;;2.53;1.90;;;;;;;18.22;54.10;101871.72;4790752;29;20157;-73
2020/12/18 04:34:27;;;;;;;3.25;1.50;;;;;;;18.20;54.14;101874.31;4801863;29;20064;-73
2020/12/18 04:36:53;;;;;;;2.63;2.00;;;;;;;18.21;53.87;101875.22;4805438;29;20121;-73
2020/12/18 04:39:18;;;;;;;1.92;1.30;;;;;;;18.21;54.19;101872.59;4804751;29;20122;-73
2020/12/18 04:41:43;;;;;;;1.70;1.15;;;;;;;18.18;54.19;101868.19;4823518;29;20042;-73
2020/12/18 04:44:09;;;;;;;2.90;1.60;;;;;;;18.21;53.86;101867.34;4817192;29;20045;-73
2020/12/18 04:46:36;;;;;;;1.67;1.20;;;;;;;18.20;54.10;101856.00;4801793;29;20042;-73
2020/12/18 04:49:02;;;;;;;1.58;1.25;;;;;;;18.21;53.90;101865.63;4801777;29;20033;-73
2020/12/18 04:51:28;;;;;;;3.03;1.38;;;;;;;18.23;53.93;101863.03;4794838;29;20508;-73
2020/12/18 04:53:54;;;;;;;2.17;1.85;;;;;;;18.20;53.80;101856.00;4803911;29;20034;-73
2020/12/18 04:56:32;;;;;;;1.63;1.20;;;;;;;18.17;53.83;101850.75;4800595;29;20114;-73
2020/12/18 04:58:58;;;;;;;3.22;2.00;;;;;;;18.20;53.75;101855.13;4801170;29;20031;-73
2020/12/18 05:01:25;;;;;;;1.63;1.05;;;;;;;18.20;53.96;101842.03;4805900;29;20113;-73
2020/12/18 05:03:56;;;;;;;1.38;1.10;;;;;;;18.17;53.74;101853.38;4802465;29;20042;-74
2020/12/18 05:06:22;;;;;;;2.13;1.52;;;;;;;18.17;54.00;101844.63;4800081;29;20364;-73
2020/12/18 05:08:47;;;;;;;1.65;1.20;;;;;;;18.18;54.08;101844.63;4798238;29;20096;-73
2020/12/18 05:11:23;;;;;;;2.90;1.63;;;;;;;18.18;53.95;101849.84;4800740;29;20064;-73
2020/12/18 05:13:51;;;;;;;2.65;1.55;;;;;;;18.18;53.78;101852.47;4798946;29;20039;-72
2020/12/18 05:16:18;;;;;;;1.80;1.33;;;;;;;18.18;53.79;101848.97;4809019;29;20039;-73
2020/12/18 05:18:43;;;;;;;2.15;1.63;;;;;;;18.17;54.04;101845.50;4777281;29;20030;-73
2020/12/18 05:21:08;;;;;;;2.85;1.42;;;;;;;18.15;53.90;101841.13;4801548;29;20036;-73
2020/12/18 05:23:45;;;;;;;2.60;1.50;;;;;;;18.15;54.30;101836.75;4786625;29;20054;-73
2020/12/18 05:26:12;;;;;;;2.55;1.52;;;;;;;18.15;54.24;101836.75;4800921;29;20092;-73
2020/12/18 05:28:43;;;;;;;4.18;1.40;;;;;;;18.16;53.92;101840.25;4801004;29;20078;-73
2020/12/18 05:31:16;;;;;;;2.35;1.60;;;;;;;18.15;54.01;101833.25;4794583;29;20028;-73
2020/12/18 05:33:43;;;;;;;2.38;1.80;;;;;;;18.15;54.08;101830.63;4816417;29;20035;-70
2020/12/18 05:36:09;;;;;;;2.10;1.40;;;;;;;18.14;53.92;101823.66;4801782;29;20033;-69
2020/12/18 05:38:39;;;;;;;2.13;1.50;;;;;;;18.11;54.11;101814.00;4799382;29;20035;-69
2020/12/18 05:41:05;;;;;;;3.17;1.17;;;;;;;18.12;54.17;101823.63;4801629;29;20062;-69
2020/12/18 05:43:42;;;;;;;4.03;1.50;;;;;;;18.16;54.10;101832.41;4803785;29;20038;-69
2020/12/18 05:46:24;;;;;;;2.85;1.50;;;;;;;18.22;53.72;101829.84;4806374;29;20038;-70
2020/12/18 05:49:02;;;;;;;3.92;1.42;;;;;;;18.37;53.42;101832.63;4794043;29;20504;-70
2020/12/18 05:51:30;;;;;;;2.35;1.38;;;;;;;18.46;53.35;101829.22;4799263;29;20074;-70
2020/12/18 05:54:14;;;;;;;3.20;1.30;;;;;;;18.42;53.45;101817.88;4814583;29;20035;-74
2020/12/18 05:56:41;;;;;;;2.00;1.35;;;;;;;18.50;53.19;101828.41;4801236;29;20034;-76
2020/12/18 05:59:27;;;;;;;2.17;1.30;;;;;;;18.64;53.02;101829.47;4791105;29;20436;-72
2020/12/18 06:01:54;;;;;;;3.00;1.20;;;;;;;18.66;53.03;101835.63;4806174;29;20086;-70
2020/12/18 06:04:24;;;;;;;2.20;1.40;;;;;;;18.64;53.16;101839.06;4803316;29;20398;-70
2020/12/18 06:06:54;;;;;;;1.92;1.50;;;;;;;18.63;53.25;101832.94;4806187;29;20065;-70
2020/12/18 06:09:22;;;;;;;2.28;1.63;;;;;;;18.62;53.24;101822.44;4800545;29;20517;-70
2020/12/18 06:11:48;;;;;;;2.95;1.20;;;;;;;18.65;53.08;101844.34;4797277;29;20042;-70
2020/12/18 06:14:15;;;;;;;2.10;1.20;;;;;;;18.64;53.16;101832.09;4804478;29;20512;-70
2020/12/18 06:16:42;;;;;;;2.72;1.58;;;;;;;18.72;53.19;101832.16;4792001;29;20461;-73
2020/12/18 06:19:09;;;;;;;2.05;1.20;;;;;;;18.70;52.96;101826.00;4808145;29;20026;-73
2020/12/18 06:21:35;;;;;;;3.25;1.95;;;;;;;18.67;53.19;101816.41;4800693;29;20114;-73
2020/12/18 06:24:02;;;;;;;7.43;2.40;;;;;;;18.74;53.09;101814.72;4807173;29;20490;-73
2020/12/18 06:26:28;;;;;;;4.80;1.10;;;;;;;18.79;53.13;101815.66;4806394;29;20063;-73
2020/12/18 06:29:01;;;;;;;3.33;1.58;;;;;;;18.73;53.04;101816.44;4809839;29;20065;-74
2020/12/18 06:31:30;;;;;;;4.10;1.75;;;;;;;18.79;52.92;101837.50;4808275;29;20062;-73
2020/12/18 06:33:56;;;;;;;3.13;2.00;;;;;;;18.86;53.05;101827.94;4795392;29;20075;-70
2020/12/18 06:36:44;;;;;;;2.10;1.30;;;;;;;18.82;53.11;101831.41;4807222;29;20045;-71
2020/12/18 06:39:28;;;;;;;2.47;1.48;;;;;;;18.84;53.07;101830.53;4806845;29;20035;-71
2020/12/18 06:42:15;;;;;;;4.10;1.35;;;;;;;18.91;52.96;101836.72;4806762;29;20035;-70
2020/12/18 06:44:47;;;;;;;3.92;1.65;;;;;;;18.82;53.03;101831.41;4800452;29;20031;-70
2020/12/18 06:47:26;;;;;;;2.13;1.20;;;;;;;18.82;53.13;101826.16;4807669;29;20058;-76
2020/12/18 06:49:54;;;;;;;2.13;1.30;;;;;;;18.91;53.13;101826.22;4806934;29;20054;-72
2020/12/18 06:52:41;;;;;;;5.60;1.55;;;;;;;18.88;53.33;101820.97;4794451;29;20035;-72
2020/12/18 06:55:09;;;;;;;4.22;1.52;;;;;;;18.83;53.22;101828.75;4798731;29;20042;-72
2020/12/18 06:57:35;;;;;;;3.75;1.75;;;;;;;18.91;52.97;101827.13;4806805;29;20023;-72
2020/12/18 07:00:25;;;;;;;2.28;1.35;;;;;;;18.91;53.35;101837.59;4808756;29;20038;-72
2020/12/18 07:02:51;;;;;;;3.78;1.60;;;;;;;18.90;53.23;101842.81;4807517;29;20027;-72
2020/12/18 07:05:35;;;;;;;3.63;1.98;;;;;;;18.97;53.09;101842.00;4785724;29;20039;-72
2020/12/18 07:08:07;;;;;;;2.70;1.50;;;;;;;18.94;53.36;101842.00;4803837;29;20601;-72
2020/12/18 07:10:37;;;;;;;2.08;1.10;;;;;;;18.90;53.32;101846.31;4806685;29;20050;-72
2020/12/18 07:13:04;;;;;;;1.25;0.95;;;;;;;19.00;53.32;101854.25;4788767;30;20452;-72
2020/12/18 07:16:03;;;;;;;2.05;1.45;;;;;;;18.99;53.10;101857.75;4801601;29;20113;-72
2020/12/18 07:18:31;;;;;;;2.90;1.33;;;;;;;18.94;53.36;101857.72;4793559;29;20038;-72
2020/12/18 07:20:58;;;;;;;2.33;1.23;;;;;;;18.99;53.04;101856.00;4805376;29;20035;-72
2020/12/18 07:23:26;;;;;;;2.70;1.50;;;;;;;18.95;53.33;101864.72;4805942;29;20103;-73
2020/12/18 07:25:53;;;;;;;2.20;1.27;;;;;;;18.95;53.09;101869.09;4803771;29;20510;-72
2020/12/18 07:28:19;;;;;;;2.33;0.95;;;;;;;19.02;53.22;101866.53;4788095;29;20039;-71
2020/12/18 07:30:46;;;;;;;1.80;1.20;;;;;;;19.06;53.09;101870.06;4801682;29;20501;-73
2020/12/18 07:33:13;;;;;;;3.03;1.23;;;;;;;19.02;53.17;101876.13;4806380;29;20382;-72
2020/12/18 07:35:47;;;;;;;3.22;1.20;;;;;;;19.03;53.58;101886.63;4810927;29;20034;-73
2020/12/18 07:38:14;;;;;;;1.95;1.15;;;;;;;19.06;53.16;101885.78;4802526;29;20031;-73
2020/12/18 07:40:40;;;;;;;2.42;1.35;;;;;;;19.08;53.16;101898.06;4809309;29;20090;-73
2020/12/18 07:43:10;;;;;;;2.30;1.23;;;;;;;19.07;53.39;101896.28;4793187;29;20039;-74
2020/12/18 07:45:38;;;;;;;3.38;1.40;;;;;;;19.07;53.20;101875.31;4799263;29;20062;-73
2020/12/18 07:48:08;;;;;;;1.95;1.25;;;;;;;19.05;53.28;101892.78;4815650;29;20625;-73
2020/12/18 07:50:34;;;;;;;3.63;1.35;;;;;;;19.03;53.37;101877.88;4812164;29;20055;-74
2020/12/18 07:53:06;;;;;;;3.90;1.50;;;;;;;19.10;52.87;101879.69;4810404;29;20049;-73
2020/12/18 07:55:31;;;;;;;1.73;1.15;;;;;;;19.09;53.37;101880.56;4790114;29;20038;-73
2020/12/18 07:57:56;;;;;;;5.05;1.85;;;;;;;19.03;53.42;101878.78;4797582;29;20035;-73
2020/12/18 08:00:22;;;;;;;3.25;1.17;;;;;;;19.09;53.10;101878.81;4802743;29;20046;-74
2020/12/18 08:02:48;;;;;;;2.55;1.42;;;;;;;19.08;53.20;101879.72;4800644;29;20491;-73
2020/12/18 08:05:19;;;;;;;1.80;1.27;;;;;;;19.04;53.35;101864.81;4798243;29;20061;-73
2020/12/18 08:07:45;;;;;;;3.13;1.33;;;;;;;19.06;53.31;101864.81;4812656;29;20083;-73
2020/12/18 08:10:12;;;;;;;1.75;1.38;;;;;;;19.12;53.20;101863.13;4785858;29;20039;-73
2020/12/18 08:12:39;;;;;;;4.03;1.63;;;;;;;19.05;53.22;101876.16;4809971;29;20030;-73
2020/12/18 08:15:06;;;;;;;2.10;1.10;;;;;;;19.10;53.34;101879.69;4818619;29;20035;-73
2020/12/18 08:17:33;;;;;;;3.15;1.55;;;;;;;19.15;53.07;101873.63;4808421;29;20125;-73
2020/12/18 08:19:58;;;;;;;2.40;1.75;;;;;;;19.13;53.07;101879.72;4812639;29;20390;-73
2020/12/18 08:22:26;;;;;;;2.70;1.63;;;;;;;19.11;53.13;101882.31;4826777;29;20117;-73
2020/12/18 08:24:58;;;;;;;2.67;1.92;;;;;;;19.14;53.19;101876.25;4811503;29;20102;-73
2020/12/18 08:27:27;;;;;;;2.47;1.33;;;;;;;19.14;53.01;101886.72;4799030;29;20038;-74
2020/12/18 08:29:53;;;;;;;3.00;1.92;;;;;;;19.10;53.30;101883.19;4817086;29;20482;-73
2020/12/18 08:32:31;;;;;;;2.13;1.20;;;;;;;19.16;52.93;101885.00;4800918;29;20096;-73
2020/12/18 08:35:04;;;;;;;2.13;1.45;;;;;;;19.15;53.15;101884.13;4798188;29;20084;-73
2020/12/18 08:37:29;;;;;;;7.97;2.05;;;;;;;19.09;53.03;101889.28;4807418;29;20030;-74
2020/12/18 08:39:55;;;;;;;2.83;1.90;;;;;;;19.19;52.50;101891.16;4805892;29;20088;-73
2020/12/18 08:42:21;;;;;;;3.63;2.58;;;;;;;19.22;52.67;101885.03;4806274;29;20381;-74
2020/12/18 08:44:46;;;;;;;3.53;1.85;;;;;;;19.14;52.82;101877.13;4804439;29;20041;-78
2020/12/18 08:47:23;;;;;;;2.97;1.80;;;;;;;19.22;52.92;101872.81;4804453;29;20027;-74
2020/12/18 08:49:50;;;;;;;4.05;1.75;;;;;;;19.23;52.89;101877.19;4799084;29;20051;-74
2020/12/18 08:52:24;;;;;;;5.95;2.40;;;;;;;19.16;53.16;101877.13;4789091;29;20059;-73
2020/12/18 08:55:00;;;;;;;2.38;1.70;;;;;;;19.23;52.96;101871.06;4804649;29;20042;-73
2020/12/18 08:57:28;;;;;;;2.30;1.98;;;;;;;19.24;52.95;101872.81;4805443;29;20049;-73
2020/12/18 08:59:57;;;;;;;2.95;2.00;;;;;;;19.21;52.90;101868.44;4805577;29;20062;-74
2020/12/18 09:02:24;;;;;;;4.53;1.63;;;;;;;19.24;52.99;101868.47;4807049;29;20105;-74
2020/12/18 09:05:08;;;;;;;4.97;2.90;;;;;;;19.27;53.02;101867.59;4806610;29;20509;-73
2020/12/18 09:07:54;;;;;;;4.78;2.53;;;;;;;19.22;53.07;101861.44;4802645;29;20027;-73
2020/12/18 09:10:42;;;;;;;4.82;2.40;;;;;;;19.26;53.27;101871.09;4796613;29;20042;-73
2020/12/18 09:13:29;;;;;;;2.70;1.77;;;;;;;19.27;53.06;101859.75;4802599;29;20031;-74
2020/12/18 09:15:59;;;;;;;2.42;1.70;;;;;;;19.23;53.05;101871.06;4801147;29;20402;-74
2020/12/18 09:18:26;;;;;;;2.50;1.98;;;;;;;19.32;52.92;101858.03;4795534;29;20027;-73
2020/12/18 09:20:52;;;;;;;4.13;1.77;;;;;;;19.33;52.81;101869.41;4803466;29;20570;-73
2020/12/18 09:23:28;;;;;;;3.22;2.15;;;;;;;19.26;52.83;101865.84;4795735;29;20079;-73
2020/12/18 09:25:53;;;;;;;3.78;2.45;;;;;;;19.31;53.18;101861.53;4816880;29;20555;-73
2020/12/18 09:28:20;;;;;;;2.53;1.90;;;;;;;19.34;52.81;101864.19;4766042;29;20047;-73
2020/12/18 09:30:47;;;;;;;3.47;2.17;;;;;;;19.31;52.77;101882.50;4792384;29;20533;-73
2020/12/18 09:33:15;;;;;;;4.57;2.45;;;;;;;19.34;53.06;101885.16;4803720;29;20042;-73
2020/12/18 09:35:42;;;;;;;2.45;2.03;;;;;;;19.40;52.64;101873.84;4805743;29;20048;-73
2020/12/18 09:38:08;;;;;;;4.65;2.33;;;;;;;19.36;52.80;101878.16;4817353;29;20034;-73
2020/12/18 09:40:34;;;;;;;3.53;2.15;;;;;;;19.33;52.96;101880.78;4803399;29;20031;-73
2020/12/18 09:42:59;;;;;;;3.88;2.00;;;;;;;19.39;52.72;101883.44;4814406;29;20179;-73
2020/12/18 09:45:25;;;;;;;2.67;1.67;;;;;;;19.37;52.81;101889.53;4803913;29;20038;-74
2020/12/18 09:47:50;;;;;;;2.25;1.88;;;;;;;19.33;52.95;101890.41;4802244;29;20035;-70
2020/12/18 09:50:16;;;;;;;2.42;2.08;;;;;;;19.41;52.51;101891.31;4802584;29;20047;-71
2020/12/18 09:52:41;;;;;;;2.85;2.17;;;;;;;19.39;52.78;101896.56;4773684;29;20031;-73
2020/12/18 09:55:06;;;;;;;4.43;2.22;;;;;;;19.37;52.88;101884.28;4800767;29;20105;-72
2020/12/18 09:57:34;;;;;;;5.78;2.47;;;;;;;19.41;53.28;101879.09;4812567;29;20057;-70
2020/12/18 10:00:03;;;;;;;7.22;2.47;;;;;;;19.47;53.44;101878.28;4792050;29;20479;-72
2020/12/18 10:02:29;;;;;;;3.58;1.65;;;;;;;19.38;53.45;101862.44;4803523;29;20057;-76
2020/12/18 10:04:56;;;;;;;4.43;2.20;;;;;;;19.42;53.53;101867.72;4770791;29;20027;-72
2020/12/18 10:07:21;;;;;;;3.45;2.22;;;;;;;19.49;53.33;101869.56;4818556;29;20886;-72
2020/12/18 10:09:47;;;;;;;3.25;2.30;;;;;;;19.38;53.37;101855.44;4805543;29;20043;-72
2020/12/18 10:12:12;;;;;;;3.55;2.05;;;;;;;19.49;53.13;101852.94;4805718;29;20452;-72
2020/12/18 10:14:38;;;;;;;5.10;2.38;;;;;;;19.52;53.15;101861.72;4820106;29;20118;-72
2020/12/18 10:17:03;;;;;;;4.30;1.73;;;;;;;19.48;53.17;101856.38;4795498;29;20121;-72
2020/12/18 10:19:29;;;;;;;3.17;2.47;;;;;;;19.52;53.14;101866.97;4796800;29;20045;-72
2020/12/18 10:21:55;;;;;;;4.07;2.20;;;;;;;19.52;53.07;101859.09;4792842;29;20066;-72
2020/12/18 10:24:20;;;;;;;2.97;1.67;;;;;;;19.49;53.14;101848.56;4807494;29;20062;-72
2020/12/18 10:26:47;;;;;;;3.60;2.03;;;;;;;19.52;53.20;101855.59;4787256;29;20041;-72
2020/12/18 10:29:13;;;;;;;3.38;1.75;;;;;;;19.58;52.96;101853.03;4807233;29;20043;-72
2020/12/18 10:31:38;;;;;;;3.63;2.58;;;;;;;19.52;52.97;101832.84;4812584;29;20046;-72
2020/12/18 10:34:04;;;;;;;1.98;1.50;;;;;;;19.55;53.22;101834.63;4807587;29;20038;-72
2020/12/18 10:36:30;;;;;;;2.80;1.75;;;;;;;19.59;52.99;101831.16;4805566;29;20042;-72
2020/12/18 10:38:55;;;;;;;1.80;1.35;;;;;;;19.61;52.97;101837.28;4803152;29;20027;-72
2020/12/18 10:41:20;;;;;;;3.72;2.47;;;;;;;19.57;53.01;101838.16;4806294;29;20890;-72
2020/12/18 10:43:46;;;;;;;2.40;1.60;;;;;;;19.61;52.82;101825.03;4805899;29;20081;-72
2020/12/18 10:46:11;;;;;;;2.88;2.00;;;;;;;19.65;52.80;101809.31;4783991;29;20547;-72
2020/12/18 10:48:36;;;;;;;2.60;1.73;;;;;;;19.57;53.00;101797.03;4808641;29;20444;-72
2020/12/18 10:51:02;;;;;;;3.00;1.65;;;;;;;19.58;52.90;101780.44;4807974;29;20078;-72
2020/12/18 10:53:27;;;;;;;1.90;1.50;;;;;;;19.63;52.70;101768.19;4806005;29;20031;-72
2020/12/18 10:55:53;;;;;;;1.90;1.30;;;;;;;19.58;52.85;101776.94;4804607;29;20035;-73
2020/12/18 10:58:18;;;;;;;1.83;1.38;;;;;;;19.66;53.13;101775.22;4805993;29;20035;-72
2020/12/18 11:00:43;;;;;;;1.67;1.30;;;;;;;19.65;52.51;101767.31;4808249;29;20042;-72
2020/12/18 11:03:09;;;;;;;3.40;1.48;;;;;;;19.63;52.61;101773.44;4806151;29;20065;-71
2020/12/18 11:05:34;;;;;;;3.20;1.58;;;;;;;19.65;52.85;101789.19;4774271;29;20031;-71
2020/12/18 11:08:00;;;;;;;4.70;1.75;;;;;;;19.72;52.49;101791.00;4805938;29;22294;-72
2020/12/18 11:10:25;;;;;;;2.10;1.35;;;;;;;19.68;52.64;101788.34;4803932;29;20034;-72
2020/12/18 11:12:50;;;;;;;2.65;2.15;;;;;;;19.67;52.81;101790.09;4791849;29;20038;-71
2020/12/18 11:15:16;;;;;;;2.15;1.20;;;;;;;19.70;52.59;101783.97;4814224;29;20038;-72
2020/12/18 11:17:41;;;;;;;1.98;1.40;;;;;;;19.69;52.80;101779.59;4806486;29;20552;-72
2020/12/18 11:20:07;;;;;;;2.50;1.40;;;;;;;19.62;52.68;101773.44;4804234;29;20043;-72
2020/12/18 11:22:32;;;;;;;4.05;2.22;;;;;;;19.67;52.74;101783.97;4808591;29;20042;-72
2020/12/18 11:24:59;;;;;;;2.08;1.30;;;;;;;19.60;52.85;101768.16;4809871;29;20046;-72
2020/12/18 11:27:25;;;;;;;2.45;1.52;;;;;;;19.51;52.75;101760.25;4812520;29;20027;-72